sensor_id;sensor_type;location;lat;lon;timestamp;pressure;altitude;pressure_sealevel;temperature;humidity
52957;BME280;38819;42.692;23.342;2022-12-18T00:00:33;96055.34;;;8.25;76.06
52957;BME280;38819;42.692;23.342;2022-12-18T00:02:58;96064.56;;;8.29;76.40
52957;BME280;38819;42.692;23.342;2022-12-18T00:05:23;96060.78;;;8.30;75.31
52957;BME280;38819;42.692;23.342;2022-12-18T00:07:49;96076.34;;;8.23;75.46
52957;BME280;38819;42.692;23.342;2022-12-18T00:10:14;96067.09;;;8.13;75.49
52957;BME280;38819;42.692;23.342;2022-12-18T00:12:39;96067.88;;;8.09;75.93
52957;BME280;38819;42.692;23.342;2022-12-18T00:15:05;96077.94;;;8.19;75.26
52957;BME280;38819;42.692;23.342;2022-12-18T00:17:30;96085.38;;;8.11;75.39
52957;BME280;38819;42.692;23.342;2022-12-18T00:19:55;96070.13;;;8.17;75.18
52957;BME280;38819;42.692;23.342;2022-12-18T00:22:21;96071.94;;;8.11;75.32
52957;BME280;38819;42.692;23.342;2022-12-18T00:24:46;96077.88;;;8.13;74.77
52957;BME280;38819;42.692;23.342;2022-12-18T00:27:11;96081.38;;;8.14;75.21
52957;BME280;38819;42.692;23.342;2022-12-18T00:29:36;96096.69;;;8.13;74.99
52957;BME280;38819;42.692;23.342;2022-12-18T00:32:02;96089.97;;;8.11;74.20
52957;BME280;38819;42.692;23.342;2022-12-18T00:34:27;96109.56;;;8.06;74.32
52957;BME280;38819;42.692;23.342;2022-12-18T00:36:52;96095.84;;;8.08;74.22
52957;BME280;38819;42.692;23.342;2022-12-18T00:39:18;96107.41;;;8.08;74.02
52957;BME280;38819;42.692;23.342;2022-12-18T00:41:43;96104.59;;;7.93;74.41
52957;BME280;38819;42.692;23.342;2022-12-18T00:44:27;96102.28;;;7.79;74.34
52957;BME280;38819;42.692;23.342;2022-12-18T00:46:52;96103.38;;;7.78;74.79
52957;BME280;38819;42.692;23.342;2022-12-18T00:49:18;96107.38;;;7.76;75.19
52957;BME280;38819;42.692;23.342;2022-12-18T00:51:43;96106.38;;;7.82;74.82
52957;BME280;38819;42.692;23.342;2022-12-18T00:54:09;96111.56;;;7.67;74.92
52957;BME280;38819;42.692;23.342;2022-12-18T00:56:35;96117.03;;;7.72;74.51
52957;BME280;38819;42.692;23.342;2022-12-18T00:59:00;96128.22;;;7.64;74.85
52957;BME280;38819;42.692;23.342;2022-12-18T01:01:25;96118.81;;;7.66;74.91
52957;BME280;38819;42.692;23.342;2022-12-18T01:03:51;96123.16;;;7.67;74.55
52957;BME280;38819;42.692;23.342;2022-12-18T01:06:16;96120.00;;;7.75;74.35
52957;BME280;38819;42.692;23.342;2022-12-18T01:08:43;96127.00;;;7.76;74.12
52957;BME280;38819;42.692;23.342;2022-12-18T01:11:12;96131.97;;;7.63;74.14
52957;BME280;38819;42.692;23.342;2022-12-18T01:13:38;96136.47;;;7.57;74.31
52957;BME280;38819;42.692;23.342;2022-12-18T01:16:03;96142.66;;;7.57;73.88
52957;BME280;38819;42.692;23.342;2022-12-18T01:18:29;96145.28;;;7.52;74.10
52957;BME280;38819;42.692;23.342;2022-12-18T01:20:54;96148.78;;;7.53;74.48
52957;BME280;38819;42.692;23.342;2022-12-18T01:23:19;96143.94;;;7.55;74.17
52957;BME280;38819;42.692;23.342;2022-12-18T01:25:44;96143.41;;;7.53;73.95
52957;BME280;38819;42.692;23.342;2022-12-18T01:28:10;96145.84;;;7.54;73.85
52957;BME280;38819;42.692;23.342;2022-12-18T01:30:36;96160.66;;;7.57;74.00
52957;BME280;38819;42.692;23.342;2022-12-18T01:33:01;96147.03;;;7.64;73.69
52957;BME280;38819;42.692;23.342;2022-12-18T01:35:26;96152.91;;;7.60;73.74
52957;BME280;38819;42.692;23.342;2022-12-18T01:37:55;96150.09;;;7.50;73.26
52957;BME280;38819;42.692;23.342;2022-12-18T01:40:20;96149.13;;;7.39;73.73
52957;BME280;38819;42.692;23.342;2022-12-18T01:42:49;96169.34;;;7.42;74.25
52957;BME280;38819;42.692;23.342;2022-12-18T01:52:43;96167.03;;;7.29;74.16
52957;BME280;38819;42.692;23.342;2022-12-18T01:55:10;96178.50;;;7.24;74.40
52957;BME280;38819;42.692;23.342;2022-12-18T01:57:36;96169.41;;;7.25;74.22
52957;BME280;38819;42.692;23.342;2022-12-18T02:00:04;96161.34;;;7.25;73.63
52957;BME280;38819;42.692;23.342;2022-12-18T02:02:30;96170.00;;;7.10;73.92
52957;BME280;38819;42.692;23.342;2022-12-18T02:04:55;96165.09;;;7.07;74.05
52957;BME280;38819;42.692;23.342;2022-12-18T02:12:52;96180.91;;;7.03;73.78
52957;BME280;38819;42.692;23.342;2022-12-18T02:20:15;96190.25;;;7.01;73.78
52957;BME280;38819;42.692;23.342;2022-12-18T02:28:09;96195.97;;;6.71;74.45
52957;BME280;38819;42.692;23.342;2022-12-18T02:30:37;96190.28;;;6.67;75.01
52957;BME280;38819;42.692;23.342;2022-12-18T02:33:04;96210.91;;;6.66;74.46
52957;BME280;38819;42.692;23.342;2022-12-18T02:35:29;96205.81;;;6.65;74.83
52957;BME280;38819;42.692;23.342;2022-12-18T02:37:56;96200.19;;;6.66;74.65
52957;BME280;38819;42.692;23.342;2022-12-18T02:40:23;96194.81;;;6.66;74.74
52957;BME280;38819;42.692;23.342;2022-12-18T02:42:49;96201.50;;;6.64;74.70
52957;BME280;38819;42.692;23.342;2022-12-18T02:45:15;96214.59;;;6.60;74.76
52957;BME280;38819;42.692;23.342;2022-12-18T02:47:41;96210.00;;;6.44;75.31
52957;BME280;38819;42.692;23.342;2022-12-18T02:50:16;96208.59;;;6.41;76.00
52957;BME280;38819;42.692;23.342;2022-12-18T02:55:44;96207.44;;;6.20;76.44
52957;BME280;38819;42.692;23.342;2022-12-18T03:03:21;96212.63;;;6.10;76.76
52957;BME280;38819;42.692;23.342;2022-12-18T03:05:50;96223.72;;;6.02;76.75
52957;BME280;38819;42.692;23.342;2022-12-18T03:08:27;96215.69;;;6.02;76.89
52957;BME280;38819;42.692;23.342;2022-12-18T03:10:55;96228.22;;;6.13;76.78
52957;BME280;38819;42.692;23.342;2022-12-18T03:13:25;96214.31;;;6.16;76.68
52957;BME280;38819;42.692;23.342;2022-12-18T03:15:52;96211.88;;;6.15;76.68
52957;BME280;38819;42.692;23.342;2022-12-18T03:18:21;96230.88;;;6.25;75.89
52957;BME280;38819;42.692;23.342;2022-12-18T03:20:49;96222.97;;;6.18;75.73
52957;BME280;38819;42.692;23.342;2022-12-18T03:23:18;96223.97;;;6.29;75.25
52957;BME280;38819;42.692;23.342;2022-12-18T03:25:46;96235.13;;;6.38;74.97
52957;BME280;38819;42.692;23.342;2022-12-18T03:28:16;96240.00;;;6.41;74.68
52957;BME280;38819;42.692;23.342;2022-12-18T03:30:44;96238.38;;;6.40;74.99
52957;BME280;38819;42.692;23.342;2022-12-18T03:33:12;96242.13;;;6.39;75.02
52957;BME280;38819;42.692;23.342;2022-12-18T03:35:41;96243.84;;;6.45;74.94
52957;BME280;38819;42.692;23.342;2022-12-18T03:38:07;96248.31;;;6.56;74.38
52957;BME280;38819;42.692;23.342;2022-12-18T03:40:41;96246.53;;;6.45;74.15
52957;BME280;38819;42.692;23.342;2022-12-18T03:46:17;96256.28;;;6.51;72.77
52957;BME280;38819;42.692;23.342;2022-12-18T03:48:47;96268.09;;;6.50;72.60
52957;BME280;38819;42.692;23.342;2022-12-18T03:51:47;96279.22;;;6.42;71.94
52957;BME280;38819;42.692;23.342;2022-12-18T03:54:04;96279.94;;;6.37;72.09
52957;BME280;38819;42.692;23.342;2022-12-18T03:56:33;96294.06;;;6.33;71.88
52957;BME280;38819;42.692;23.342;2022-12-18T03:59:00;96265.59;;;6.32;72.18
52957;BME280;38819;42.692;23.342;2022-12-18T04:01:32;96277.06;;;6.27;72.25
52957;BME280;38819;42.692;23.342;2022-12-18T04:03:59;96278.81;;;6.21;72.43
52957;BME280;38819;42.692;23.342;2022-12-18T04:06:25;96291.88;;;6.18;72.69
52957;BME280;38819;42.692;23.342;2022-12-18T04:08:51;96291.19;;;6.22;72.73
52957;BME280;38819;42.692;23.342;2022-12-18T04:11:17;96286.72;;;6.28;72.91
52957;BME280;38819;42.692;23.342;2022-12-18T04:13:42;96294.63;;;6.35;72.51
52957;BME280;38819;42.692;23.342;2022-12-18T04:16:08;96287.41;;;6.35;72.09
52957;BME280;38819;42.692;23.342;2022-12-18T04:18:34;96291.56;;;6.43;71.83
52957;BME280;38819;42.692;23.342;2022-12-18T04:21:00;96300.91;;;6.40;71.57
52957;BME280;38819;42.692;23.342;2022-12-18T04:23:25;96303.69;;;6.45;71.77
52957;BME280;38819;42.692;23.342;2022-12-18T04:25:50;96310.31;;;6.55;71.23
52957;BME280;38819;42.692;23.342;2022-12-18T04:28:15;96317.44;;;6.49;70.75
52957;BME280;38819;42.692;23.342;2022-12-18T04:30:41;96318.63;;;6.41;70.25
52957;BME280;38819;42.692;23.342;2022-12-18T04:33:10;96319.00;;;6.45;70.21
52957;BME280;38819;42.692;23.342;2022-12-18T04:35:35;96325.88;;;6.41;70.07
52957;BME280;38819;42.692;23.342;2022-12-18T04:38:00;96322.72;;;6.44;69.87
52957;BME280;38819;42.692;23.342;2022-12-18T04:40:26;96328.22;;;6.37;69.53
52957;BME280;38819;42.692;23.342;2022-12-18T04:42:51;96329.78;;;6.21;69.51
52957;BME280;38819;42.692;23.342;2022-12-18T04:45:16;96334.91;;;6.23;69.85
52957;BME280;38819;42.692;23.342;2022-12-18T04:47:42;96338.66;;;6.22;69.48
52957;BME280;38819;42.692;23.342;2022-12-18T04:50:07;96329.22;;;6.19;69.76
52957;BME280;38819;42.692;23.342;2022-12-18T04:52:33;96332.56;;;6.26;69.07
52957;BME280;38819;42.692;23.342;2022-12-18T04:54:58;96348.56;;;6.21;69.17
52957;BME280;38819;42.692;23.342;2022-12-18T04:57:23;96345.97;;;6.26;69.24
52957;BME280;38819;42.692;23.342;2022-12-18T04:59:48;96350.31;;;6.27;69.34
52957;BME280;38819;42.692;23.342;2022-12-18T05:02:14;96352.97;;;6.27;68.12
52957;BME280;38819;42.692;23.342;2022-12-18T05:04:39;96351.59;;;6.13;68.25
52957;BME280;38819;42.692;23.342;2022-12-18T05:07:05;96358.53;;;5.97;68.61
52957;BME280;38819;42.692;23.342;2022-12-18T05:09:30;96371.47;;;6.00;68.83
52957;BME280;38819;42.692;23.342;2022-12-18T05:11:55;96363.75;;;6.04;68.88
52957;BME280;38819;42.692;23.342;2022-12-18T05:14:20;96369.69;;;6.06;69.00
52957;BME280;38819;42.692;23.342;2022-12-18T05:16:46;96376.59;;;6.02;69.08
52957;BME280;38819;42.692;23.342;2022-12-18T05:19:11;96370.28;;;5.96;69.03
52957;BME280;38819;42.692;23.342;2022-12-18T05:21:36;96380.31;;;6.01;69.23
52957;BME280;38819;42.692;23.342;2022-12-18T05:24:02;96388.59;;;5.99;68.92
52957;BME280;38819;42.692;23.342;2022-12-18T05:26:27;96384.97;;;5.93;69.22
52957;BME280;38819;42.692;23.342;2022-12-18T05:28:52;96386.72;;;6.00;69.34
52957;BME280;38819;42.692;23.342;2022-12-18T05:31:17;96398.94;;;5.96;69.45
52957;BME280;38819;42.692;23.342;2022-12-18T05:33:43;96387.56;;;6.00;69.41
52957;BME280;38819;42.692;23.342;2022-12-18T05:36:08;96395.13;;;6.03;69.10
52957;BME280;38819;42.692;23.342;2022-12-18T05:38:35;96390.34;;;6.05;69.03
52957;BME280;38819;42.692;23.342;2022-12-18T05:41:01;96409.09;;;5.93;68.75
52957;BME280;38819;42.692;23.342;2022-12-18T05:43:27;96401.50;;;5.90;68.45
52957;BME280;38819;42.692;23.342;2022-12-18T05:45:53;96402.22;;;5.86;68.64
52957;BME280;38819;42.692;23.342;2022-12-18T05:48:19;96420.41;;;5.72;68.40
52957;BME280;38819;42.692;23.342;2022-12-18T05:50:45;96408.25;;;5.69;68.35
52957;BME280;38819;42.692;23.342;2022-12-18T05:53:11;96416.31;;;5.69;68.49
52957;BME280;38819;42.692;23.342;2022-12-18T05:55:38;96426.56;;;5.72;68.30
52957;BME280;38819;42.692;23.342;2022-12-18T05:58:04;96417.72;;;5.72;68.13
52957;BME280;38819;42.692;23.342;2022-12-18T06:00:30;96434.72;;;5.78;68.06
52957;BME280;38819;42.692;23.342;2022-12-18T06:02:57;96421.66;;;5.69;68.02
52957;BME280;38819;42.692;23.342;2022-12-18T06:05:22;96433.56;;;5.62;68.26
52957;BME280;38819;42.692;23.342;2022-12-18T06:07:47;96437.72;;;5.57;68.52
52957;BME280;38819;42.692;23.342;2022-12-18T06:10:12;96436.34;;;5.55;68.46
52957;BME280;38819;42.692;23.342;2022-12-18T06:12:38;96438.78;;;5.45;68.90
52957;BME280;38819;42.692;23.342;2022-12-18T06:15:03;96423.50;;;5.45;69.09
52957;BME280;38819;42.692;23.342;2022-12-18T06:17:29;96425.13;;;5.46;69.05
52957;BME280;38819;42.692;23.342;2022-12-18T06:19:55;96443.41;;;5.49;69.04
52957;BME280;38819;42.692;23.342;2022-12-18T06:22:20;96432.38;;;5.57;68.98
52957;BME280;38819;42.692;23.342;2022-12-18T06:24:45;96454.66;;;5.58;68.51
52957;BME280;38819;42.692;23.342;2022-12-18T06:27:10;96449.75;;;5.55;68.69
52957;BME280;38819;42.692;23.342;2022-12-18T06:29:36;96445.41;;;5.54;68.92
52957;BME280;38819;42.692;23.342;2022-12-18T06:32:01;96451.97;;;5.58;68.65
52957;BME280;38819;42.692;23.342;2022-12-18T06:34:26;96455.22;;;5.60;68.79
52957;BME280;38819;42.692;23.342;2022-12-18T06:36:51;96459.50;;;5.49;68.56
52957;BME280;38819;42.692;23.342;2022-12-18T06:39:17;96462.44;;;5.60;69.01
52957;BME280;38819;42.692;23.342;2022-12-18T06:41:42;96476.66;;;5.60;68.45
52957;BME280;38819;42.692;23.342;2022-12-18T06:44:07;96486.72;;;5.65;68.27
52957;BME280;38819;42.692;23.342;2022-12-18T06:46:33;96494.88;;;5.70;68.13
52957;BME280;38819;42.692;23.342;2022-12-18T06:48:58;96484.25;;;5.63;67.98
52957;BME280;38819;42.692;23.342;2022-12-18T06:51:24;96485.75;;;5.59;68.06
52957;BME280;38819;42.692;23.342;2022-12-18T06:53:49;96487.06;;;5.68;68.24
52957;BME280;38819;42.692;23.342;2022-12-18T06:56:14;96488.00;;;5.74;67.09
52957;BME280;38819;42.692;23.342;2022-12-18T06:58:40;96482.63;;;5.74;66.74
52957;BME280;38819;42.692;23.342;2022-12-18T07:01:07;96479.84;;;5.81;66.28
52957;BME280;38819;42.692;23.342;2022-12-18T07:03:33;96478.69;;;5.77;65.66
52957;BME280;38819;42.692;23.342;2022-12-18T07:05:58;96492.66;;;5.67;65.64
52957;BME280;38819;42.692;23.342;2022-12-18T07:08:26;96495.22;;;5.62;64.99
52957;BME280;38819;42.692;23.342;2022-12-18T07:10:51;96523.28;;;5.59;65.80
52957;BME280;38819;42.692;23.342;2022-12-18T07:13:18;96525.72;;;5.61;65.54
52957;BME280;38819;42.692;23.342;2022-12-18T07:15:44;96506.59;;;5.57;65.67
52957;BME280;38819;42.692;23.342;2022-12-18T07:18:09;96508.56;;;5.50;66.30
52957;BME280;38819;42.692;23.342;2022-12-18T07:20:35;96514.75;;;5.50;66.36
52957;BME280;38819;42.692;23.342;2022-12-18T07:23:04;96509.47;;;5.44;66.81
52957;BME280;38819;42.692;23.342;2022-12-18T07:25:30;96520.59;;;5.29;67.47
52957;BME280;38819;42.692;23.342;2022-12-18T07:27:55;96505.13;;;5.31;67.56
52957;BME280;38819;42.692;23.342;2022-12-18T07:30:21;96527.69;;;5.23;67.78
52957;BME280;38819;42.692;23.342;2022-12-18T07:32:46;96514.97;;;5.18;68.03
52957;BME280;38819;42.692;23.342;2022-12-18T07:35:11;96512.38;;;5.12;68.51
52957;BME280;38819;42.692;23.342;2022-12-18T07:37:37;96518.03;;;5.04;68.82
52957;BME280;38819;42.692;23.342;2022-12-18T07:40:02;96515.41;;;5.15;68.50
52957;BME280;38819;42.692;23.342;2022-12-18T07:42:27;96527.91;;;5.22;68.14
52957;BME280;38819;42.692;23.342;2022-12-18T07:44:56;96524.09;;;5.29;67.89
52957;BME280;38819;42.692;23.342;2022-12-18T07:47:21;96542.75;;;5.36;68.07
52957;BME280;38819;42.692;23.342;2022-12-18T07:49:47;96534.50;;;5.37;67.92
52957;BME280;38819;42.692;23.342;2022-12-18T07:52:12;96526.03;;;5.22;68.57
52957;BME280;38819;42.692;23.342;2022-12-18T07:54:37;96534.59;;;5.31;68.25
52957;BME280;38819;42.692;23.342;2022-12-18T07:57:03;96540.97;;;5.48;68.69
52957;BME280;38819;42.692;23.342;2022-12-18T07:59:28;96546.78;;;5.45;68.06
52957;BME280;38819;42.692;23.342;2022-12-18T08:01:53;96549.91;;;5.42;68.29
52957;BME280;38819;42.692;23.342;2022-12-18T08:04:19;96547.25;;;5.54;68.12
52957;BME280;38819;42.692;23.342;2022-12-18T08:06:44;96560.78;;;5.59;67.91
52957;BME280;38819;42.692;23.342;2022-12-18T08:09:09;96553.72;;;5.65;68.04
52957;BME280;38819;42.692;23.342;2022-12-18T08:11:35;96557.94;;;5.72;67.74
52957;BME280;38819;42.692;23.342;2022-12-18T08:14:00;96565.13;;;5.60;67.53
52957;BME280;38819;42.692;23.342;2022-12-18T08:16:26;96564.53;;;5.58;68.04
52957;BME280;38819;42.692;23.342;2022-12-18T08:18:52;96570.38;;;5.67;68.05
52957;BME280;38819;42.692;23.342;2022-12-18T08:21:19;96579.81;;;5.69;67.48
52957;BME280;38819;42.692;23.342;2022-12-18T08:23:46;96582.47;;;5.57;67.91
52957;BME280;38819;42.692;23.342;2022-12-18T08:26:11;96594.47;;;5.55;67.85
52957;BME280;38819;42.692;23.342;2022-12-18T08:28:37;96584.66;;;5.49;67.46
52957;BME280;38819;42.692;23.342;2022-12-18T08:31:02;96582.28;;;5.41;67.48
52957;BME280;38819;42.692;23.342;2022-12-18T08:33:28;96589.94;;;5.37;67.78
52957;BME280;38819;42.692;23.342;2022-12-18T08:35:54;96592.53;;;5.44;67.72
52957;BME280;38819;42.692;23.342;2022-12-18T08:38:19;96591.50;;;5.45;66.84
52957;BME280;38819;42.692;23.342;2022-12-18T08:40:44;96599.31;;;5.46;67.24
52957;BME280;38819;42.692;23.342;2022-12-18T08:43:10;96598.03;;;5.49;66.57
52957;BME280;38819;42.692;23.342;2022-12-18T08:45:54;96593.63;;;5.54;66.54
52957;BME280;38819;42.692;23.342;2022-12-18T08:48:19;96590.63;;;5.63;66.61
52957;BME280;38819;42.692;23.342;2022-12-18T08:50:53;96598.38;;;5.71;65.90
52957;BME280;38819;42.692;23.342;2022-12-18T08:53:18;96604.22;;;5.49;66.24
52957;BME280;38819;42.692;23.342;2022-12-18T08:55:50;96607.09;;;5.66;66.45
52957;BME280;38819;42.692;23.342;2022-12-18T08:58:17;96603.69;;;5.59;66.21
52957;BME280;38819;42.692;23.342;2022-12-18T09:00:43;96599.03;;;5.66;65.64
52957;BME280;38819;42.692;23.342;2022-12-18T09:03:13;96603.00;;;5.64;64.98
52957;BME280;38819;42.692;23.342;2022-12-18T09:05:38;96600.78;;;5.61;64.67
52957;BME280;38819;42.692;23.342;2022-12-18T09:08:03;96601.31;;;5.51;64.75
52957;BME280;38819;42.692;23.342;2022-12-18T09:10:29;96598.09;;;5.61;64.40
52957;BME280;38819;42.692;23.342;2022-12-18T09:12:54;96596.22;;;5.61;64.38
52957;BME280;38819;42.692;23.342;2022-12-18T09:15:21;96606.03;;;5.67;63.83
52957;BME280;38819;42.692;23.342;2022-12-18T09:17:46;96595.88;;;5.57;64.15
52957;BME280;38819;42.692;23.342;2022-12-18T09:20:11;96603.69;;;5.59;63.64
52957;BME280;38819;42.692;23.342;2022-12-18T09:22:36;96596.69;;;5.58;63.28
52957;BME280;38819;42.692;23.342;2022-12-18T09:25:02;96598.78;;;5.56;63.36
52957;BME280;38819;42.692;23.342;2022-12-18T09:27:27;96595.53;;;5.66;63.44
52957;BME280;38819;42.692;23.342;2022-12-18T09:29:52;96599.19;;;5.71;63.16
52957;BME280;38819;42.692;23.342;2022-12-18T09:32:18;96597.25;;;5.79;62.78
52957;BME280;38819;42.692;23.342;2022-12-18T09:34:43;96597.91;;;5.74;62.76
52957;BME280;38819;42.692;23.342;2022-12-18T09:37:08;96596.78;;;5.82;62.96
52957;BME280;38819;42.692;23.342;2022-12-18T09:39:34;96592.81;;;5.84;62.79
52957;BME280;38819;42.692;23.342;2022-12-18T09:41:59;96610.28;;;5.75;62.52
52957;BME280;38819;42.692;23.342;2022-12-18T09:44:41;96605.69;;;5.64;62.98
52957;BME280;38819;42.692;23.342;2022-12-18T09:49:43;96609.09;;;5.71;62.88
52957;BME280;38819;42.692;23.342;2022-12-18T09:52:14;96604.31;;;5.73;62.83
52957;BME280;38819;42.692;23.342;2022-12-18T09:54:41;96605.47;;;5.65;62.66
52957;BME280;38819;42.692;23.342;2022-12-18T09:57:10;96593.19;;;5.57;63.55
52957;BME280;38819;42.692;23.342;2022-12-18T09:59:37;96597.50;;;5.59;62.78
52957;BME280;38819;42.692;23.342;2022-12-18T10:02:21;96595.94;;;5.51;63.43
52957;BME280;38819;42.692;23.342;2022-12-18T10:04:50;96591.69;;;5.62;63.15
52957;BME280;38819;42.692;23.342;2022-12-18T10:10:02;96595.84;;;5.88;61.77
52957;BME280;38819;42.692;23.342;2022-12-18T10:13:13;96593.63;;;6.03;61.11
52957;BME280;38819;42.692;23.342;2022-12-18T10:20:43;96588.25;;;6.03;60.79
52957;BME280;38819;42.692;23.342;2022-12-18T10:23:18;96595.47;;;6.03;60.59
52957;BME280;38819;42.692;23.342;2022-12-18T10:28:20;96596.06;;;6.05;60.72
52957;BME280;38819;42.692;23.342;2022-12-18T10:30:46;96603.59;;;5.96;61.10
52957;BME280;38819;42.692;23.342;2022-12-18T10:33:13;96589.88;;;6.04;60.75
52957;BME280;38819;42.692;23.342;2022-12-18T10:35:40;96596.41;;;5.97;61.02
52957;BME280;38819;42.692;23.342;2022-12-18T10:43:22;96596.59;;;5.95;61.45
52957;BME280;38819;42.692;23.342;2022-12-18T10:48:30;96591.91;;;5.90;61.82
52957;BME280;38819;42.692;23.342;2022-12-18T10:50:57;96594.59;;;5.90;61.82
52957;BME280;38819;42.692;23.342;2022-12-18T10:53:23;96586.78;;;5.89;61.92
52957;BME280;38819;42.692;23.342;2022-12-18T10:55:49;96594.66;;;6.02;61.54
52957;BME280;38819;42.692;23.342;2022-12-18T10:58:26;96588.34;;;5.97;61.37
52957;BME280;38819;42.692;23.342;2022-12-18T11:01:03;96584.22;;;5.94;61.90
52957;BME280;38819;42.692;23.342;2022-12-18T11:03:31;96589.53;;;6.12;61.62
52957;BME280;38819;42.692;23.342;2022-12-18T11:06:04;96586.50;;;6.09;61.49
52957;BME280;38819;42.692;23.342;2022-12-18T11:08:30;96591.97;;;6.02;61.71
52957;BME280;38819;42.692;23.342;2022-12-18T11:10:55;96591.66;;;6.10;61.66
52957;BME280;38819;42.692;23.342;2022-12-18T11:13:21;96591.78;;;6.16;61.56
52957;BME280;38819;42.692;23.342;2022-12-18T11:15:47;96590.84;;;6.22;60.15
52957;BME280;38819;42.692;23.342;2022-12-18T11:18:16;96600.16;;;6.07;60.43
52957;BME280;38819;42.692;23.342;2022-12-18T11:20:42;96588.06;;;6.17;60.20
52957;BME280;38819;42.692;23.342;2022-12-18T11:23:14;96596.31;;;6.15;60.69
52957;BME280;38819;42.692;23.342;2022-12-18T11:25:40;96590.63;;;6.23;60.76
52957;BME280;38819;42.692;23.342;2022-12-18T11:28:25;96598.47;;;6.37;60.54
52957;BME280;38819;42.692;23.342;2022-12-18T11:31:34;96594.13;;;6.36;60.37
52957;BME280;38819;42.692;23.342;2022-12-18T11:33:41;96589.34;;;6.38;60.19
52957;BME280;38819;42.692;23.342;2022-12-18T11:36:07;96601.72;;;6.27;60.05
52957;BME280;38819;42.692;23.342;2022-12-18T11:38:35;96594.00;;;6.19;60.68
52957;BME280;38819;42.692;23.342;2022-12-18T11:41:07;96600.16;;;6.19;60.87
52957;BME280;38819;42.692;23.342;2022-12-18T11:46:31;96601.84;;;6.32;60.66
52957;BME280;38819;42.692;23.342;2022-12-18T11:48:58;96594.84;;;6.43;60.43
52957;BME280;38819;42.692;23.342;2022-12-18T11:51:28;96597.28;;;6.44;60.22
52957;BME280;38819;42.692;23.342;2022-12-18T11:53:57;96596.25;;;6.45;60.19
52957;BME280;38819;42.692;23.342;2022-12-18T11:56:26;96589.81;;;6.46;59.84
52957;BME280;38819;42.692;23.342;2022-12-18T12:11:26;96590.31;;;6.43;60.07
52957;BME280;38819;42.692;23.342;2022-12-18T12:16:32;96585.16;;;6.54;59.58
52957;BME280;38819;42.692;23.342;2022-12-18T12:21:41;96593.00;;;6.55;59.47
52957;BME280;38819;42.692;23.342;2022-12-18T12:29:37;96594.03;;;6.54;59.64
52957;BME280;38819;42.692;23.342;2022-12-18T12:39:45;96613.97;;;6.35;60.24
52957;BME280;38819;42.692;23.342;2022-12-18T12:42:17;96606.00;;;6.28;60.29
52957;BME280;38819;42.692;23.342;2022-12-18T12:45:03;96600.28;;;6.24;60.10
52957;BME280;38819;42.692;23.342;2022-12-18T12:47:31;96598.81;;;6.28;60.33
52957;BME280;38819;42.692;23.342;2022-12-18T12:50:02;96593.78;;;6.32;60.44
52957;BME280;38819;42.692;23.342;2022-12-18T12:54:57;96605.09;;;6.34;60.53
52957;BME280;38819;42.692;23.342;2022-12-18T12:57:45;96607.34;;;6.49;60.43
52957;BME280;38819;42.692;23.342;2022-12-18T13:00:09;96605.91;;;6.35;60.65
52957;BME280;38819;42.692;23.342;2022-12-18T13:05:16;96614.19;;;6.33;60.71
52957;BME280;38819;42.692;23.342;2022-12-18T13:08:06;96622.34;;;6.26;61.02
52957;BME280;38819;42.692;23.342;2022-12-18T13:10:32;96618.41;;;6.41;61.22
52957;BME280;38819;42.692;23.342;2022-12-18T13:13:08;96626.34;;;6.47;60.71
52957;BME280;38819;42.692;23.342;2022-12-18T13:15:41;96634.06;;;6.44;60.45
52957;BME280;38819;42.692;23.342;2022-12-18T13:23:01;96640.34;;;6.38;59.96
52957;BME280;38819;42.692;23.342;2022-12-18T13:25:44;96646.25;;;6.28;60.44
52957;BME280;38819;42.692;23.342;2022-12-18T13:28:13;96646.53;;;6.38;60.30
52957;BME280;38819;42.692;23.342;2022-12-18T13:35:39;96646.66;;;6.32;60.27
52957;BME280;38819;42.692;23.342;2022-12-18T13:43:20;96639.72;;;6.24;60.83
52957;BME280;38819;42.692;23.342;2022-12-18T13:48:27;96653.31;;;6.41;59.97
52957;BME280;38819;42.692;23.342;2022-12-18T13:50:59;96655.72;;;6.30;60.49
52957;BME280;38819;42.692;23.342;2022-12-18T13:54:00;96668.69;;;6.34;60.45
52957;BME280;38819;42.692;23.342;2022-12-18T13:56:17;96669.47;;;6.22;60.83
52957;BME280;38819;42.692;23.342;2022-12-18T13:58:43;96667.84;;;6.33;60.92
52957;BME280;38819;42.692;23.342;2022-12-18T14:01:21;96668.44;;;6.23;61.24
52957;BME280;38819;42.692;23.342;2022-12-18T14:03:47;96667.72;;;6.28;61.08
52957;BME280;38819;42.692;23.342;2022-12-18T14:06:12;96669.72;;;6.33;60.60
52957;BME280;38819;42.692;23.342;2022-12-18T14:08:39;96673.38;;;6.38;60.53
52957;BME280;38819;42.692;23.342;2022-12-18T14:11:05;96672.56;;;6.49;60.21
52957;BME280;38819;42.692;23.342;2022-12-18T14:13:40;96670.00;;;6.43;59.74
52957;BME280;38819;42.692;23.342;2022-12-18T14:16:06;96669.44;;;6.53;59.98
52957;BME280;38819;42.692;23.342;2022-12-18T14:18:41;96679.13;;;6.54;58.89
52957;BME280;38819;42.692;23.342;2022-12-18T14:21:27;96682.81;;;6.41;58.31
52957;BME280;38819;42.692;23.342;2022-12-18T14:24:14;96685.72;;;6.39;58.46
52957;BME280;38819;42.692;23.342;2022-12-18T14:26:40;96684.66;;;6.28;58.92
52957;BME280;38819;42.692;23.342;2022-12-18T14:29:20;96686.50;;;6.28;59.17
52957;BME280;38819;42.692;23.342;2022-12-18T14:31:45;96686.19;;;6.36;59.00
52957;BME280;38819;42.692;23.342;2022-12-18T14:34:16;96687.97;;;6.42;59.07
52957;BME280;38819;42.692;23.342;2022-12-18T14:36:48;96695.09;;;6.48;58.16
52957;BME280;38819;42.692;23.342;2022-12-18T14:39:17;96696.59;;;6.44;58.02
52957;BME280;38819;42.692;23.342;2022-12-18T14:41:42;96699.00;;;6.22;58.53
52957;BME280;38819;42.692;23.342;2022-12-18T14:44:11;96695.72;;;6.20;58.23
52957;BME280;38819;42.692;23.342;2022-12-18T14:46:38;96687.09;;;6.18;57.94
52957;BME280;38819;42.692;23.342;2022-12-18T14:51:48;96683.78;;;6.16;57.12
52957;BME280;38819;42.692;23.342;2022-12-18T14:54:15;96687.66;;;6.20;57.39
52957;BME280;38819;42.692;23.342;2022-12-18T14:56:43;96691.63;;;6.18;56.92